Flight Track Log - Related Links

Times and Time Zones

All times are in EDT time to prevent confusion due to time zone crossing. See the DCM1045 flight status page for this flight to view local times or setup timezone preferences in your user account.

Time Position Orientation Groundspeed Altitude Reporting Facility
EDT Latitude Longitude Course Direction KTS MPH feet Rate Location/Type
Thu 07:34:24 AM 35.2264 -80.9394 357° North 163 188 1,500  Level Atlanta Center
Thu 07:35:02 AM 35.2553 -80.9414 284° West 187 215 3,100 2,385 Climbing FAA TRACON SMA TRACON (SMA)
Thu 07:35:42 AM 35.2653 -80.9900 279° West 223 257 4,600 2,400 Climbing FAA TRACON SMA TRACON (SMA)
Thu 07:36:22 AM 35.2722 -81.0422 269° West 249 287 6,300 2,475 Climbing FAA TRACON SMA TRACON (SMA)
Thu 07:37:02 AM 35.2714 -81.1058 260° West 272 313 7,900 1,200 Climbing FAA TRACON SMA TRACON (SMA)
Thu 07:37:42 AM 35.2622 -81.1689 249° West 275 316 7,900 900 Level FAA TRACON SMA TRACON (SMA)
Thu 07:38:22 AM 35.2431 -81.2300 248° West 279 321 9,100 2,550 Climbing FAA TRACON SMA TRACON (SMA)
Thu 07:39:02 AM 35.2247 -81.2850 248° West 283 326 11,300 3,375 Climbing FAA TRACON SMA TRACON (SMA)
Thu 07:39:42 AM 35.2011 -81.3547 246° West 316 364 13,600 3,750 Climbing FAA TRACON SMA TRACON (SMA)
Thu 07:40:22 AM 35.1750 -81.4281 246° West 338 389 16,300 3,600 Climbing FAA TRACON SMA TRACON (SMA)
Thu 07:41:02 AM 35.1492 -81.4983 260° West 350 403 18,400 1,976 Climbing FAA TRACON SMA TRACON (SMA)
Thu 07:41:44 AM 35.1461 -81.5197 264° West 357 411 19,000 3,040 Climbing FAA TRACON SMA TRACON (SMA)
Thu 07:42:17 AM 35.1358 -81.6464 266° West 368 423 22,200 3,226 Climbing Atlanta Center
Thu 07:43:17 AM 35.1281 -81.7861 264° West 376 433 24,000 900 Climbing Atlanta Center
Thu 07:44:17 AM 35.1178 -81.9108 265° West 381 438 24,000 950 Level Atlanta Center
Thu 07:45:17 AM 35.1075 -82.0406 263° West 381 438 25,900 1,000 Climbing Atlanta Center
Thu 07:46:17 AM 35.0947 -82.1703 267° West 388 447 26,000 50 Climbing Atlanta Center
Thu 07:47:17 AM 35.0903 -82.2822 286° West 383 441 26,000 750 Level Atlanta Center
Thu 07:48:17 AM 35.1211 -82.4136 289° West 377 434 27,500 1,400 Climbing Atlanta Center
Thu 07:49:17 AM 35.1606 -82.5525 287° West 393 452 28,800 1,500 Climbing Atlanta Center
Thu 07:50:17 AM 35.1933 -82.6817 288° West 400 460 30,500 1,650 Climbing Atlanta Center
Thu 07:51:17 AM 35.2281 -82.8106 287° West 400 460 32,100 1,650 Climbing Atlanta Center
Thu 07:52:17 AM 35.2606 -82.9425 286° West 400 460 33,800 1,650 Climbing Atlanta Center
Thu 07:53:17 AM 35.2908 -83.0719 287° West 394 453 35,400 1,600 Climbing Atlanta Center
Thu 07:54:17 AM 35.3231 -83.2014 288° West 394 453 37,000 1,350 Climbing Atlanta Center
Thu 07:55:17 AM 35.3531 -83.3131 285° West 394 453 38,100 1,000 Climbing Atlanta Center
Thu 07:56:29 AM 35.3808 -83.4403 268° West 394 453 39,200 864 Climbing Atlanta Center
Thu 07:57:29 AM 35.3753 -83.5981 266° West 389 448 40,000 400 Climbing Atlanta Center
Thu 07:58:29 AM 35.3675 -83.7331 267° West 389 448 40,000  Level Atlanta Center
Thu 07:59:29 AM 35.3614 -83.8733 267° West 406 467 40,000  Level Atlanta Center
Thu 08:00:29 AM 35.3553 -84.0158 267° West 411 473 40,000  Level Atlanta Center
Thu 08:01:29 AM 35.3489 -84.1558 266° West 416 479 40,000  Level Atlanta Center
Thu 08:02:29 AM 35.3403 -84.3086 266° West 416 479 40,000  Level Atlanta Center
Thu 08:03:29 AM 35.3317 -84.4486 267° West 421 484 40,000  Level Atlanta Center
Thu 08:04:29 AM 35.3247 -84.5911 267° West 421 484 40,000  Level Atlanta Center
Thu 08:05:29 AM 35.3178 -84.7311 267° West 421 484 40,000  Level Atlanta Center
Thu 08:06:29 AM 35.3108 -84.8711 265° West 421 484 40,000  Level Atlanta Center
Thu 08:07:29 AM 35.3014 -85.0108 266° West 421 484 40,000  Level Atlanta Center
Thu 08:08:29 AM 35.2939 -85.1456 265° West 421 484 40,000  Level Atlanta Center
Thu 08:09:29 AM 35.2842 -85.2856 267° West 421 484 40,000  Level Atlanta Center
Thu 08:10:29 AM 35.2786 -85.4228 265° West 421 484 40,000  Level Atlanta Center
Thu 08:11:29 AM 35.2686 -85.5650 266° West 421 484 40,000  Level Atlanta Center
Thu 08:12:29 AM 35.2606 -85.6997 266° West 416 479 40,000  Level Atlanta Center
Thu 08:13:29 AM 35.2550 -85.8089 265° West 416 479 40,000  Level Atlanta Center
Thu 08:14:29 AM 35.2442 -85.9614 266° West 411 473 40,000  Level Atlanta Center
Thu 08:15:29 AM 35.2358 -86.1011 264° West 411 473 40,000  Level Atlanta Center
Thu 08:16:29 AM 35.2228 -86.2481 266° West 406 467 40,000  Level Atlanta Center
Thu 08:17:56 AM 35.2106 -86.4483 266° West 424 488 40,000  Level Memphis Center
Thu 08:18:56 AM 35.2022 -86.5836 264° West 415 478 40,000  Level Memphis Center
Thu 08:19:56 AM 35.1917 -86.7161 265° West 400 460 40,000  Level Memphis Center
Thu 08:20:56 AM 35.1811 -86.8536 266° West 400 460 40,000  Level Memphis Center
Thu 08:21:56 AM 35.1739 -86.9733 265° West 400 460 40,000  Level Memphis Center
Thu 08:22:56 AM 35.1650 -87.1058 265° West 400 460 40,000  Level Memphis Center
Thu 08:23:56 AM 35.1558 -87.2383 264° West 400 460 40,000  Level Memphis Center
Thu 08:24:56 AM 35.1444 -87.3733 265° West 400 460 40,000  Level Memphis Center
Thu 08:25:56 AM 35.1353 -87.5081 264° West 405 466 40,000  Level Memphis Center
Thu 08:26:56 AM 35.1217 -87.6558 264° West 405 466 40,000  Level Memphis Center
Thu 08:27:56 AM 35.1100 -87.7908 265° West 405 466 40,000  Level Memphis Center
Thu 08:28:56 AM 35.1003 -87.9206 264° West 405 466 40,000  Level Memphis Center
Thu 08:29:56 AM 35.0881 -88.0528 266° West 405 466 40,000  Level Memphis Center
Thu 08:30:57 AM 35.0803 -88.1900 265° West 410 472 40,000  Level Memphis Center
Thu 08:31:56 AM 35.0700 -88.3272 264° West 410 472 40,000  Level Memphis Center
Thu 08:32:56 AM 35.0575 -88.4622 263° West 404 465 40,000  Level Memphis Center
Thu 08:33:56 AM 35.0447 -88.5917 264° West 404 465 40,000  Level Memphis Center
Thu 08:34:56 AM 35.0339 -88.7111 264° West 404 465 40,000  Level Memphis Center
Thu 08:35:56 AM 35.0231 -88.8458 262° West 409 471 40,000  Level Memphis Center
Thu 08:36:56 AM 35.0081 -88.9831 264° West 409 471 40,000  Level Memphis Center
Thu 08:37:56 AM 34.9969 -89.1175 264° West 409 471 40,000  Level Memphis Center
Thu 08:38:56 AM 34.9858 -89.2544 264° West 409 471 40,000  Level Memphis Center
Thu 08:39:56 AM 34.9744 -89.3889 263° West 403 464 40,000  Level Memphis Center
Thu 08:40:56 AM 34.9608 -89.5233 263° West 408 470 40,000 -50 Level Memphis Center
Thu 08:41:56 AM 34.9469 -89.6628 262° West 408 470 39,900 -650 Descending Memphis Center
Thu 08:42:56 AM 34.9289 -89.8125 267° West 413 475 38,700 -1,300 Descending Memphis Center
Thu 08:43:56 AM 34.9233 -89.9467 262° West 429 494 37,300 -1,350 Descending Memphis Center
Thu 08:44:56 AM 34.9069 -90.0911 262° West 441 507 36,000 -1,400 Descending Memphis Center
Thu 08:45:56 AM 34.8906 -90.2381 263° West 441 507 34,500 -1,800 Descending Memphis Center
Thu 08:46:56 AM 34.8758 -90.3797 264° West 434 499 32,400 -2,200 Descending Memphis Center
Thu 08:47:56 AM 34.8611 -90.5367 263° West 434 499 30,100 -2,350 Descending Memphis Center
Thu 08:48:56 AM 34.8464 -90.6783 263° West 429 494 27,700 -2,400 Descending Memphis Center
Thu 08:49:56 AM 34.8314 -90.8175 262° West 422 486 25,300 -2,400 Descending Memphis Center
Thu 08:50:56 AM 34.8161 -90.9464 263° West 411 473 22,900 -2,750 Descending Memphis Center
Thu 08:51:56 AM 34.8031 -91.0753 263° West 393 452 19,800 -3,100 Descending Memphis Center
Thu 08:52:56 AM 34.7897 -91.1992 265° West 376 433 16,700 -3,050 Descending Memphis Center
Thu 08:53:56 AM 34.7806 -91.3181 255° West 363 418 13,700 -3,067 Descending Memphis Center
Thu 08:54:26 AM 34.7675 -91.3786 263° West 351 404 12,100 -2,700 Descending Memphis Center
Thu 08:54:56 AM 34.7628 -91.4289 262° West 348 400 11,000 -1,818 Descending Memphis Center
Thu 08:55:32 AM 34.7561 -91.4894 261° West 307 353 10,100 -1,780 Descending Memphis Center
Thu 08:56:27 AM 34.7447 -91.5778 263° West 279 321 8,300 -1,707 Descending Memphis Center
Thu 08:57:28 AM 34.7356 -91.6686 255° West 275 316 6,800 -1,636 Descending Memphis Center
Thu 08:58:28 AM 34.7158 -91.7594 257° West 261 300 5,000 -1,606 Descending Memphis Center
Thu 08:59:35 AM 34.6981 -91.8525 256° West 268 308 3,400 -1,125 Descending Memphis Center
Thu 09:00:36 AM 34.6803 -91.9406 254° West 267 307 2,600 -709 Descending Memphis Center
Thu 09:01:42 AM 34.6561 -92.0411 262° West 268 308 1,900 -331 Descending Memphis Center
Thu 09:02:43 AM 34.6464 -92.1267 273° West 271 312 1,900 -49 Level Memphis Center
Thu 09:03:44 AM 34.6494 -92.2075 314° West 214 246 1,800 -417 Descending Memphis Center
Thu 09:04:38 AM 34.6781 -92.2436 359° North 158 182 1,100 -730 Descending Memphis Center
Thu 09:05:39 AM 34.7136 -92.2444 306° West 127 146 400 14,739 Descending Memphis Center
Thu 09:06:56 AM 34.7461 -92.2983 306° West 136 157 35,000 26,961 Climbing Memphis Center

Login

Don't have an account? Register now (free) for customized features, flight alerts, and more!